Time;durP1;ratioP1;P1;durP2;ratioP2;P2;SDS_P1;SDS_P2;PMS_P1;PMS_P2;Temp;Humidity;BMP_temperature;BMP_pressure;BME280_temperature;BME280_humidity;BME280_pressure;Samples;Min_cycle;Max_cycle;Signal;HPM_P1;HPM_P2
2022/10/03 00:00:27;;;;;;;17.52;5.63;;;9.60;99.90;;;;;;5096619;28;20147;-69
2022/10/03 00:03:11;;;;;;;31.73;5.90;;;9.60;99.90;;;;;;5102176;28;20040;-68
2022/10/03 00:05:57;;;;;;;7.80;2.17;;;9.60;99.90;;;;;;5104673;28;20044;-69
2022/10/03 00:08:47;;;;;;;29.35;6.57;;;9.60;99.90;;;;;;5104927;28;20146;-69
2022/10/03 00:11:33;;;;;;;28.38;6.28;;;9.60;99.90;;;;;;5092554;28;20051;-68
2022/10/03 00:14:14;;;;;;;19.60;5.38;;;9.60;99.90;;;;;;5106665;28;20126;-68
2022/10/03 00:16:51;;;;;;;17.27;5.00;;;9.60;99.90;;;;;;5099512;28;20054;-69
2022/10/03 00:19:23;;;;;;;24.52;5.80;;;9.50;99.90;;;;;;5105135;28;20051;-68
2022/10/03 00:22:12;;;;;;;16.17;5.25;;;9.50;99.90;;;;;;5107115;28;20048;-68
2022/10/03 00:25:01;;;;;;;47.72;6.88;;;9.50;99.90;;;;;;5109170;28;20449;-69
2022/10/03 00:27:38;;;;;;;26.20;6.68;;;9.60;99.90;;;;;;5099350;28;20046;-69
2022/10/03 00:30:18;;;;;;;25.52;6.15;;;9.40;99.90;;;;;;5103839;28;20886;-68
2022/10/03 00:33:04;;;;;;;25.88;5.60;;;9.40;99.90;;;;;;5100072;28;20047;-68
2022/10/03 00:35:33;;;;;;;13.63;5.00;;;9.40;99.90;;;;;;5096682;28;20580;-69
2022/10/03 00:38:37;;;;;;;;;;;9.30;99.90;;;;;;5102919;28;20442;-68
2022/10/03 00:41:03;;;;;;;12.18;2.50;;;9.30;99.90;;;;;;5065799;28;19921;-69
2022/10/03 00:44:03;;;;;;;19.23;5.28;;;9.20;99.90;;;;;;5049274;28;20051;-69
2022/10/03 00:46:54;;;;;;;1.48;1.27;;;9.20;99.90;;;;;;5091074;28;20113;-69
2022/10/03 00:49:51;;;;;;;19.13;5.55;;;9.20;99.90;;;;;;5094871;28;20052;-69
2022/10/03 00:52:41;;;;;;;16.50;5.65;;;9.20;99.90;;;;;;5102773;28;20065;-69
2022/10/03 00:55:34;;;;;;;29.65;6.25;;;9.20;99.90;;;;;;5097479;28;20048;-70
2022/10/03 00:58:30;;;;;;;5.22;2.08;;;9.20;99.90;;;;;;5106418;28;20036;-69
2022/10/03 01:01:21;;;;;;;32.03;5.45;;;9.10;99.90;;;;;;5079312;28;20059;-69
2022/10/03 01:03:56;;;;;;;32.15;6.45;;;9.10;99.90;;;;;;5104701;28;20112;-69
2022/10/03 01:06:34;;;;;;;28.10;6.20;;;9.20;99.90;;;;;;5104804;28;20040;-69
2022/10/03 01:09:18;;;;;;;12.60;2.05;;;9.20;99.90;;;;;;5102943;28;20059;-69
2022/10/03 01:12:07;;;;;;;18.33;4.65;;;9.20;99.90;;;;;;5105615;28;20055;-70
2022/10/03 01:14:32;;;;;;;15.35;5.63;;;9.20;99.90;;;;;;5107490;28;20454;-69
2022/10/03 01:17:23;;;;;;;23.77;5.45;;;9.30;99.90;;;;;;5106938;28;20048;-69
2022/10/03 01:20:27;;;;;;;22.40;5.45;;;9.30;99.90;;;;;;5105917;28;20067;-69
2022/10/03 01:23:01;;;;;;;51.28;6.07;;;9.40;99.90;;;;;;5107167;28;20052;-69
2022/10/03 01:25:38;;;;;;;19.67;6.93;;;9.30;99.90;;;;;;5100947;28;20043;-69
2022/10/03 01:32:03;;;;;;;30.15;5.65;;;9.60;99.90;;;;;;5047894;28;20078;-69
2022/10/03 01:34:47;;;;;;;7.68;2.42;;;9.60;99.90;;;;;;5059985;28;20049;-69
2022/10/03 01:37:35;;;;;;;27.35;5.95;;;9.70;99.90;;;;;;5084805;28;20059;-69
2022/10/03 01:40:07;;;;;;;21.65;5.35;;;9.80;99.90;;;;;;5102002;28;20051;-69
2022/10/03 01:42:52;;;;;;;17.77;4.18;;;9.80;99.90;;;;;;5094545;28;20167;-69
2022/10/03 01:45:36;;;;;;;19.73;6.25;;;10.00;99.90;;;;;;5099189;28;20047;-69
2022/10/03 01:48:13;;;;;;;4.82;3.15;;;9.90;99.90;;;;;;5093466;28;20039;-69
2022/10/03 01:50:53;;;;;;;30.88;6.22;;;9.90;99.90;;;;;;5083624;28;20047;-69
2022/10/03 01:53:34;;;;;;;31.25;6.45;;;10.00;99.90;;;;;;5097284;28;20145;-69
2022/10/03 01:56:33;;;;;;;36.97;6.43;;;10.10;99.90;;;;;;5106109;28;20535;-69
2022/10/03 01:59:18;;;;;;;27.77;5.65;;;10.10;99.90;;;;;;5108291;28;21261;-69
2022/10/03 02:02:06;;;;;;;15.90;5.60;;;10.20;99.90;;;;;;5100468;28;20046;-68
2022/10/03 02:04:52;;;;;;;9.30;2.15;;;10.20;99.90;;;;;;5097693;28;20051;-69
2022/10/03 02:07:46;;;;;;;4.25;2.85;;;10.80;99.90;;;;;;5095690;28;20044;-69
2022/10/03 02:10:24;;;;;;;30.13;6.10;;;10.10;99.90;;;;;;5107203;28;20185;-68
2022/10/03 02:13:13;;;;;;;25.10;6.15;;;10.20;99.90;;;;;;5093793;28;20564;-69
2022/10/03 02:15:53;;;;;;;31.88;6.20;;;10.10;99.90;;;;;;5101490;28;20058;-69
2022/10/03 02:18:57;;;;;;;13.25;2.00;;;10.30;99.90;;;;;;5090099;28;20044;-68
2022/10/03 02:21:31;;;;;;;7.47;2.05;;;10.20;99.90;;;;;;5101747;27;20044;-69
2022/10/03 02:24:19;;;;;;;2.45;1.67;;;10.20;99.90;;;;;;5107096;28;20044;-70
2022/10/03 02:27:04;;;;;;;21.55;4.90;;;10.20;99.90;;;;;;5106529;28;20069;-68
2022/10/03 02:29:50;;;;;;;16.00;5.60;;;10.20;99.90;;;;;;5100650;28;20054;-69
2022/10/03 02:32:38;;;;;;;20.17;4.80;;;10.20;99.90;;;;;;5086840;28;20039;-69
2022/10/03 02:35:42;;;;;;;25.30;5.35;;;10.20;99.90;;;;;;5104245;27;20052;-69
2022/10/03 02:38:16;;;;;;;18.40;5.38;;;10.20;99.90;;;;;;5098806;28;20059;-68
2022/10/03 02:41:14;;;;;;;19.88;4.55;;;10.20;99.90;;;;;;5099602;28;20413;-68
2022/10/03 02:44:08;;;;;;;22.60;4.57;;;10.10;99.90;;;;;;5091919;28;20084;-68
2022/10/03 02:46:57;;;;;;;15.35;4.60;;;10.10;99.90;;;;;;5102450;28;20050;-68
2022/10/03 02:49:38;;;;;;;26.42;4.68;;;10.00;99.90;;;;;;5101309;28;20505;-68
2022/10/03 02:52:16;;;;;;;21.50;4.38;;;10.00;99.90;;;;;;5095412;28;20097;-69
2022/10/03 02:55:10;;;;;;;21.73;4.85;;;9.90;99.90;;;;;;5099178;28;20165;-68
2022/10/03 02:58:00;;;;;;;13.57;3.40;;;9.90;99.90;;;;;;5122532;27;20056;-68
2022/10/03 03:00:38;;;;;;;18.13;4.95;;;9.90;99.90;;;;;;5098516;28;20060;-68
2022/10/03 03:03:23;;;;;;;20.90;5.07;;;9.80;99.90;;;;;;5085762;28;20082;-68
2022/10/03 03:06:19;;;;;;;22.10;4.95;;;9.70;99.90;;;;;;5092175;28;20044;-69
2022/10/03 03:09:03;;;;;;;5.00;1.58;;;9.70;99.90;;;;;;5099604;28;20050;-68
2022/10/03 03:11:49;;;;;;;2.92;1.30;;;9.60;99.90;;;;;;5107313;28;20428;-68
2022/10/03 03:14:23;;;;;;;14.55;4.63;;;9.60;99.90;;;;;;5095805;28;20089;-68
2022/10/03 03:17:05;;;;;;;26.77;5.22;;;9.60;99.90;;;;;;5104609;28;20036;-68
2022/10/03 03:19:42;;;;;;;25.55;4.95;;;9.60;99.90;;;;;;5090291;28;20070;-69
2022/10/03 03:22:59;;;;;;;23.45;5.07;;;9.70;99.90;;;;;;5091934;28;20052;-68
2022/10/03 03:25:57;;;;;;;14.32;4.43;;;9.60;99.90;;;;;;5088461;28;20060;-69
2022/10/03 03:28:32;;;;;;;16.70;4.68;;;9.60;99.90;;;;;;5099038;28;20051;-68
2022/10/03 03:31:09;;;;;;;16.73;4.25;;;9.70;99.90;;;;;;5097854;28;20055;-68
2022/10/03 03:34:12;;;;;;;20.77;5.32;;;9.70;99.90;;;;;;5097353;28;20048;-68
2022/10/03 03:36:53;;;;;;;13.68;5.53;;;9.70;99.90;;;;;;5101186;28;20036;-68
2022/10/03 03:39:34;;;;;;;20.77;3.90;;;9.70;99.90;;;;;;5105399;28;20446;-68
2022/10/03 03:42:11;;;;;;;19.50;5.80;;;9.70;99.90;;;;;;5098740;28;20052;-68
2022/10/03 03:44:53;;;;;;;14.30;3.45;;;9.70;99.90;;;;;;5108732;27;20046;-69
2022/10/03 03:47:29;;;;;;;2.03;1.30;;;9.70;99.90;;;;;;5085038;28;20055;-69
2022/10/03 03:50:03;;;;;;;23.83;5.05;;;9.70;99.90;;;;;;5099074;28;20055;-69
2022/10/03 03:53:00;;;;;;;21.30;2.75;;;9.70;99.90;;;;;;5097362;28;20050;-69
2022/10/03 03:55:31;;;;;;;17.73;5.05;;;9.80;99.90;;;;;;5099720;28;20127;-69
2022/10/03 03:58:16;;;;;;;18.38;4.80;;;9.70;99.90;;;;;;5108052;28;20047;-69
2022/10/03 04:01:24;;;;;;;19.45;5.28;;;9.80;99.90;;;;;;5096835;28;20052;-68
2022/10/03 04:04:29;;;;;;;17.27;5.28;;;9.90;99.90;;;;;;5100926;28;20088;-69
2022/10/03 04:07:14;;;;;;;28.02;5.22;;;9.90;99.90;;;;;;5085164;28;20123;-68
2022/10/03 04:10:11;;;;;;;16.23;4.53;;;9.90;99.90;;;;;;5107814;28;20059;-69
2022/10/03 04:12:48;;;;;;;15.57;5.85;;;9.90;99.90;;;;;;5110285;28;20108;-68
2022/10/03 04:15:43;;;;;;;5.37;1.50;;;10.00;99.90;;;;;;5108809;28;20400;-69
2022/10/03 04:21:46;;;;;;;18.48;4.65;;;10.00;99.90;;;;;;5110714;28;20055;-69
2022/10/03 04:24:30;;;;;;;6.65;2.15;;;10.00;99.90;;;;;;5097899;28;20555;-69
2022/10/03 04:27:14;;;;;;;1.30;1.05;;;10.00;99.90;;;;;;5110797;27;20502;-69
2022/10/03 04:30:16;;;;;;;12.48;1.75;;;10.00;99.90;;;;;;5109241;28;20100;-69
2022/10/03 04:32:56;;;;;;;3.00;1.80;;;10.00;99.90;;;;;;5086184;28;20047;-69
2022/10/03 04:35:46;;;;;;;3.42;1.42;;;10.00;99.90;;;;;;5106646;28;20535;-69
2022/10/03 04:38:49;;;;;;;12.77;3.53;;;10.00;99.90;;;;;;5100407;28;20069;-69
2022/10/03 04:41:20;;;;;;;19.08;4.50;;;10.00;99.90;;;;;;5110852;28;20416;-69
2022/10/03 04:44:10;;;;;;;15.45;3.75;;;10.00;99.90;;;;;;5102340;28;20106;-69
2022/10/03 04:46:46;;;;;;;20.38;4.50;;;10.10;99.90;;;;;;5107742;28;20047;-69
2022/10/03 04:49:25;;;;;;;3.63;1.92;;;10.00;99.90;;;;;;5102055;28;20098;-70
2022/10/03 04:52:30;;;;;;;15.90;4.88;;;10.00;99.90;;;;;;5103013;28;20126;-69
2022/10/03 04:55:22;;;;;;;10.98;3.92;;;10.00;99.90;;;;;;5105773;28;20388;-70
2022/10/03 04:57:55;;;;;;;34.90;4.90;;;10.00;99.90;;;;;;5103814;28;20119;-69
2022/10/03 05:00:40;;;;;;;12.07;3.67;;;10.00;99.90;;;;;;5109013;28;20845;-69
2022/10/03 05:03:15;;;;;;;11.52;3.50;;;10.00;99.90;;;;;;5104317;28;20130;-69
2022/10/03 05:05:55;;;;;;;12.80;3.92;;;10.00;99.90;;;;;;5099524;28;20047;-69
2022/10/03 05:08:54;;;;;;;7.60;3.20;;;9.90;99.90;;;;;;5095823;28;20035;-69
2022/10/03 05:11:58;;;;;;;11.70;2.88;;;9.90;99.90;;;;;;5107732;28;20404;-69
2022/10/03 05:14:33;;;;;;;14.93;3.90;;;9.90;99.90;;;;;;5087679;28;20778;-69
2022/10/03 05:17:32;;;;;;;17.65;5.43;;;9.80;99.90;;;;;;5109590;28;20088;-69
2022/10/03 05:20:22;;;;;;;15.45;4.15;;;9.80;99.90;;;;;;5087662;28;20523;-69
2022/10/03 05:23:18;;;;;;;13.07;4.32;;;9.80;99.90;;;;;;5097844;28;20051;-69
2022/10/03 05:26:03;;;;;;;13.82;3.72;;;9.70;99.90;;;;;;5102921;28;20055;-69
2022/10/03 05:28:44;;;;;;;12.70;4.25;;;9.70;99.90;;;;;;5105712;28;20097;-69
2022/10/03 05:31:27;;;;;;;17.27;4.65;;;9.60;99.90;;;;;;5107575;28;20051;-69
2022/10/03 05:34:12;;;;;;;13.35;3.35;;;9.60;99.90;;;;;;5107585;28;20086;-69
2022/10/03 05:37:13;;;;;;;12.15;3.08;;;9.60;99.90;;;;;;5096933;28;20044;-69
2022/10/03 05:39:52;;;;;;;8.27;3.38;;;9.60;99.90;;;;;;5104413;27;20072;-69
2022/10/03 05:42:34;;;;;;;11.73;3.88;;;9.50;99.90;;;;;;5098053;28;20189;-69
2022/10/03 05:45:29;;;;;;;17.17;3.75;;;9.50;99.90;;;;;;5105974;28;20052;-69
2022/10/03 05:48:09;;;;;;;13.90;3.55;;;9.40;99.90;;;;;;5094042;28;20068;-69
2022/10/03 05:51:00;;;;;;;15.80;4.15;;;9.40;99.90;;;;;;5107058;28;20493;-69
2022/10/03 05:53:44;;;;;;;11.65;3.65;;;9.40;99.90;;;;;;5103234;28;20043;-69
2022/10/03 05:56:34;;;;;;;10.50;3.83;;;9.30;99.90;;;;;;5096016;28;20046;-69
2022/10/03 05:59:30;;;;;;;22.27;3.17;;;9.30;99.90;;;;;;5096464;28;20046;-69
2022/10/03 06:02:42;;;;;;;16.10;4.07;;;9.30;99.90;;;;;;5099673;27;20043;-69
2022/10/03 06:05:23;;;;;;;13.57;3.78;;;9.30;99.90;;;;;;5094710;28;20035;-69
2022/10/03 06:08:10;;;;;;;13.80;3.70;;;9.20;99.90;;;;;;5092299;28;20074;-69
2022/10/03 06:10:58;;;;;;;9.40;3.72;;;9.30;99.90;;;;;;5088900;28;20086;-69
2022/10/03 06:13:37;;;;;;;11.10;3.78;;;9.30;99.90;;;;;;5094291;28;20047;-70
2022/10/03 06:16:22;;;;;;;15.52;2.97;;;9.40;99.90;;;;;;5091810;28;20496;-70
2022/10/03 06:18:50;;;;;;;13.65;2.22;;;9.40;99.90;;;;;;5088452;28;20056;-70
2022/10/03 06:21:35;;;;;;;29.02;6.20;;;9.50;99.90;;;;;;5086970;28;20056;-69
2022/10/03 06:24:39;;;;;;;10.63;4.53;;;9.60;99.90;;;;;;5093988;28;20050;-69
2022/10/03 06:27:13;;;;;;;18.30;4.57;;;9.70;99.90;;;;;;5096175;28;20039;-69
2022/10/03 06:30:21;;;;;;;7.00;2.10;;;9.90;99.90;;;;;;5090782;28;20048;-70
2022/10/03 06:33:00;;;;;;;11.60;4.68;;;10.00;99.90;;;;;;5098789;28;20051;-70
2022/10/03 06:35:48;;;;;;;21.15;7.32;;;10.10;99.90;;;;;;5103420;28;20503;-69
2022/10/03 06:38:48;;;;;;;23.38;6.22;;;10.30;99.90;;;;;;5104941;28;20052;-69
2022/10/03 06:41:16;;;;;;;18.70;4.75;;;10.40;99.90;;;;;;5090204;28;20043;-69
2022/10/03 06:44:07;;;;;;;14.57;3.85;;;10.50;99.90;;;;;;5082203;28;20047;-70
2022/10/03 06:46:46;;;;;;;18.45;4.13;;;10.50;99.90;;;;;;5087408;28;20114;-70
2022/10/03 06:49:56;;;;;;;13.43;4.30;;;10.60;99.90;;;;;;5090358;28;20085;-69
2022/10/03 06:52:59;;;;;;;10.90;4.43;;;10.60;99.90;;;;;;5093674;27;20071;-69
2022/10/03 06:55:30;;;;;;;41.17;5.53;;;10.70;99.90;;;;;;5092620;28;20054;-69
2022/10/03 06:58:11;;;;;;;17.90;4.88;;;10.70;99.90;;;;;;5099763;28;20052;-70
2022/10/03 07:00:58;;;;;;;23.50;3.85;;;10.80;99.90;;;;;;5094665;28;20151;-69
2022/10/03 07:04:09;;;;;;;21.67;4.63;;;10.80;99.90;;;;;;5095025;28;20059;-69
2022/10/03 07:06:36;;;;;;;13.73;3.95;;;10.80;99.90;;;;;;5085755;28;20488;-69
2022/10/03 07:09:35;;;;;;;18.95;5.45;;;10.80;99.90;;;;;;5099003;28;20462;-70
2022/10/03 07:12:15;;;;;;;2.72;1.60;;;10.70;99.90;;;;;;5094956;28;20043;-69
2022/10/03 07:15:13;;;;;;;20.80;4.10;;;10.70;99.90;;;;;;5100902;28;20733;-70
2022/10/03 07:17:49;;;;;;;21.95;4.32;;;10.70;99.90;;;;;;5107307;28;20075;-69
2022/10/03 07:20:18;;;;;;;12.57;4.05;;;10.70;99.90;;;;;;5107304;28;20071;-70
2022/10/03 07:23:06;;;;;;;26.50;4.30;;;10.70;99.90;;;;;;5096377;28;20141;-69
2022/10/03 07:25:44;;;;;;;10.57;3.92;;;10.80;99.90;;;;;;5094784;28;20043;-70
2022/10/03 07:28:48;;;;;;;22.38;5.25;;;10.80;99.90;;;;;;5093201;28;20078;-70
2022/10/03 07:31:22;;;;;;;28.02;6.82;;;10.80;99.90;;;;;;5099994;28;20054;-69
2022/10/03 07:34:17;;;;;;;24.88;4.57;;;10.80;99.90;;;;;;5102397;28;20177;-69
2022/10/03 07:40:11;;;;;;;23.98;5.18;;;11.40;99.90;;;;;;5102392;28;20048;-69
2022/10/03 07:43:21;;;;;;;15.25;4.70;;;10.90;99.90;;;;;;5099604;28;20051;-69
2022/10/03 07:46:07;;;;;;;21.88;4.82;;;10.90;99.90;;;;;;5078885;28;20100;-70
2022/10/03 07:49:21;;;;;;;24.80;4.72;;;11.00;99.90;;;;;;5100225;28;20067;-70
2022/10/03 07:52:16;;;;;;;15.25;4.15;;;11.10;99.90;;;;;;5102801;28;20090;-69
2022/10/03 07:55:12;;;;;;;20.85;4.60;;;11.20;99.90;;;;;;5099936;28;20047;-70
2022/10/03 07:57:56;;;;;;;16.42;4.80;;;11.30;99.90;;;;;;5100765;28;20055;-69
2022/10/03 08:00:39;;;;;;;21.95;4.43;;;11.40;99.90;;;;;;5100610;28;20044;-69
2022/10/03 08:03:35;;;;;;;16.15;4.38;;;11.50;99.90;;;;;;5105259;28;20051;-69
2022/10/03 08:06:26;;;;;;;18.05;4.75;;;11.60;99.90;;;;;;5085809;28;20040;-70
2022/10/03 08:09:10;;;;;;;13.98;4.95;;;11.70;99.90;;;;;;5088087;28;20046;-69
2022/10/03 08:11:48;;;;;;;15.73;5.00;;;11.80;99.90;;;;;;5101189;28;20527;-69
2022/10/03 08:14:34;;;;;;;23.15;7.88;;;11.90;99.90;;;;;;5103484;28;20445;-69
2022/10/03 08:17:11;;;;;;;22.30;6.35;;;12.00;99.90;;;;;;5094460;28;20485;-69
2022/10/03 08:20:07;;;;;;;22.60;4.30;;;12.10;99.90;;;;;;5095513;28;20092;-69
2022/10/03 08:22:59;;;;;;;19.63;4.28;;;12.20;99.90;;;;;;5100632;28;20060;-69
2022/10/03 08:26:11;;;;;;;20.23;4.35;;;12.30;99.90;;;;;;5106432;28;20052;-69
2022/10/03 08:29:05;;;;;;;26.23;4.18;;;12.50;99.90;;;;;;5069482;28;20054;-69
2022/10/03 08:31:56;;;;;;;12.75;3.28;;;12.60;99.90;;;;;;5090441;28;20063;-69
2022/10/03 08:34:45;;;;;;;18.40;3.75;;;12.70;99.90;;;;;;5090451;28;20527;-69
2022/10/03 08:37:38;;;;;;;23.60;3.67;;;12.90;99.90;;;;;;5110580;27;20063;-69
2022/10/03 08:40:43;;;;;;;10.20;3.03;;;13.00;99.90;;;;;;5095061;28;20504;-69
2022/10/03 08:43:18;;;;;;;11.52;3.65;;;13.20;99.90;;;;;;5101469;28;20054;-69
2022/10/03 08:45:51;;;;;;;12.15;2.92;;;13.40;99.90;;;;;;5107207;28;20040;-69
2022/10/03 08:48:47;;;;;;;22.85;3.55;;;13.60;99.90;;;;;;5090415;28;20535;-69
2022/10/03 08:51:31;;;;;;;10.27;2.40;;;13.70;99.90;;;;;;5104616;28;20768;-70
2022/10/03 08:54:16;;;;;;;17.77;4.30;;;14.00;99.90;;;;;;5107728;27;20047;-69
2022/10/03 08:56:45;;;;;;;16.20;2.60;;;14.20;99.90;;;;;;5100742;28;20040;-69
2022/10/03 08:59:41;;;;;;;18.17;3.17;;;14.40;99.90;;;;;;5106995;28;20047;-69
2022/10/03 09:02:21;;;;;;;19.83;3.15;;;14.60;99.90;;;;;;5111831;27;20039;-70
2022/10/03 09:05:08;;;;;;;19.40;3.13;;;14.90;99.90;;;;;;5104151;27;20040;-69
2022/10/03 09:07:45;;;;;;;13.88;3.60;;;15.10;99.90;;;;;;5094319;28;20606;-69
2022/10/03 09:10:36;;;;;;;20.33;4.07;;;15.30;99.90;;;;;;5102955;28;20050;-70
2022/10/03 09:13:09;;;;;;;25.23;4.47;;;15.60;99.90;;;;;;5105619;28;20087;-70
2022/10/03 09:15:53;;;;;;;9.82;2.75;;;15.80;99.90;;;;;;5099454;28;20047;-70
2022/10/03 09:18:42;;;;;;;17.10;4.50;;;16.00;99.90;;;;;;5106444;28;20092;-70
2022/10/03 09:21:36;;;;;;;15.18;4.22;;;16.30;99.90;;;;;;5099880;27;20090;-70
2022/10/03 09:24:54;;;;;;;16.70;3.65;;;16.50;99.90;;;;;;5099496;28;20050;-70
2022/10/03 09:27:41;;;;;;;10.50;3.80;;;16.50;99.90;;;;;;5061937;28;20420;-70
2022/10/03 09:30:36;;;;;;;10.03;2.23;;;16.70;99.90;;;;;;5093055;28;20057;-70
2022/10/03 09:33:17;;;;;;;17.15;3.53;;;16.90;99.90;;;;;;5109312;28;20402;-69
2022/10/03 09:35:48;;;;;;;13.20;3.30;;;17.00;99.90;;;;;;5099665;28;20047;-68
2022/10/03 09:38:34;;;;;;;27.75;11.90;;;17.20;99.90;;;;;;5101451;28;20515;-69
2022/10/03 09:41:18;;;;;;;14.90;4.57;;;17.30;99.90;;;;;;5095427;28;20122;-68
2022/10/03 09:44:03;;;;;;;13.02;2.78;;;17.40;99.90;;;;;;5101089;28;20071;-68
2022/10/03 09:46:40;;;;;;;15.40;4.50;;;17.50;99.90;;;;;;5104556;28;20051;-68
2022/10/03 09:49:37;;;;;;;14.38;3.88;;;17.80;99.90;;;;;;5107495;28;20108;-68
2022/10/03 09:52:09;;;;;;;14.00;2.63;;;17.90;99.90;;;;;;5106681;28;20050;-68
2022/10/03 09:54:49;;;;;;;12.25;3.17;;;18.00;99.90;;;;;;5107643;28;20055;-68
2022/10/03 09:57:43;;;;;;;13.77;2.60;;;18.00;99.90;;;;;;5101906;28;20039;-68
2022/10/03 10:00:53;;;;;;;14.90;3.17;;;18.20;99.90;;;;;;5104006;28;20044;-68
2022/10/03 10:03:40;;;;;;;10.18;3.20;;;18.50;99.90;;;;;;5106303;28;20043;-68
2022/10/03 10:06:18;;;;;;;10.15;2.47;;;18.50;99.90;;;;;;5097126;28;20085;-68
2022/10/03 10:08:59;;;;;;;16.15;4.10;;;18.70;99.90;;;;;;5107630;28;20461;-68
2022/10/03 10:11:30;;;;;;;10.80;2.88;;;18.80;99.90;;;;;;5105181;28;20056;-68
2022/10/03 10:14:43;;;;;;;13.02;2.67;;;18.90;99.90;;;;;;5103208;28;20054;-68
2022/10/03 10:17:45;;;;;;;15.98;2.72;;;19.20;99.90;;;;;;5093644;28;20185;-68
2022/10/03 10:20:49;;;;;;;12.63;3.30;;;19.40;99.90;;;;;;5093968;28;20056;-68
2022/10/03 10:23:23;;;;;;;13.48;3.25;;;19.40;99.90;;;;;;5050563;28;20102;-68
2022/10/03 10:26:16;;;;;;;7.75;2.80;;;19.40;99.90;;;;;;5063839;28;20053;-68
2022/10/03 10:28:54;;;;;;;15.10;2.05;;;19.40;99.90;;;;;;5075680;28;20044;-71
2022/10/03 10:31:46;;;;;;;12.70;3.30;;;19.60;99.90;;;;;;5086864;28;20083;-71
2022/10/03 10:34:29;;;;;;;13.35;2.67;;;19.70;99.90;;;;;;5082174;28;20059;-71
2022/10/03 10:37:01;;;;;;;10.68;2.97;;;19.70;99.90;;;;;;5088797;28;20096;-70
2022/10/03 10:39:48;;;;;;;9.75;2.63;;;19.70;99.90;;;;;;5088113;28;20404;-71
2022/10/03 10:42:39;;;;;;;18.58;3.55;;;19.90;99.90;;;;;;5099096;28;20047;-70
2022/10/03 10:45:37;;;;;;;5.70;2.20;;;19.80;99.90;;;;;;5093955;28;20060;-71
2022/10/03 10:48:40;;;;;;;14.63;2.05;;;20.10;99.90;;;;;;5104637;27;20051;-71
2022/10/03 10:51:32;;;;;;;11.05;2.33;;;20.20;99.90;;;;;;5101866;28;20051;-71
2022/10/03 10:54:35;;;;;;;15.13;3.05;;;20.30;99.90;;;;;;5097142;28;20076;-71
2022/10/03 10:57:39;;;;;;;19.05;2.58;;;20.30;99.90;;;;;;5107072;28;20044;-72
2022/10/03 11:00:25;;;;;;;9.85;2.33;;;20.30;99.90;;;;;;5098433;28;20117;-71
2022/10/03 11:03:18;;;;;;;10.80;2.35;;;20.20;99.90;;;;;;5106202;28;20075;-72
2022/10/03 11:06:14;;;;;;;9.75;2.03;;;20.30;99.90;;;;;;5106326;28;20160;-71
2022/10/03 11:09:03;;;;;;;13.77;2.08;;;20.40;99.90;;;;;;5093515;28;20039;-72
2022/10/03 11:11:44;;;;;;;8.52;1.88;;;20.30;99.90;;;;;;5096969;28;20150;-72
2022/10/03 11:15:00;;;;;;;11.50;2.03;;;20.30;99.90;;;;;;5089598;28;20036;-72
2022/10/03 11:17:46;;;;;;;13.20;3.00;;;20.20;99.90;;;;;;5063940;28;20623;-72
2022/10/03 11:20:24;;;;;;;10.75;1.88;;;20.20;99.90;;;;;;5058367;28;20409;-72
2022/10/03 11:23:07;;;;;;;;;;;20.30;99.90;;;;;;5090544;28;20075;-72
2022/10/03 11:26:11;;;;;;;14.30;2.58;;;20.20;99.90;;;;;;5107090;28;19924;-72
2022/10/03 11:29:28;;;;;;;16.15;3.38;;;20.30;99.90;;;;;;5103971;28;20040;-72
2022/10/03 11:32:24;;;;;;;14.52;2.10;;;20.30;99.90;;;;;;5077627;28;20109;-73
2022/10/03 11:34:52;;;;;;;11.20;2.65;;;20.10;99.90;;;;;;5100113;28;20075;-73
2022/10/03 11:37:18;;;;;;;21.05;2.45;;;20.20;99.90;;;;;;5095685;28;20072;-72
2022/10/03 11:40:01;;;;;;;5.35;2.08;;;20.30;99.90;;;;;;5107012;28;20039;-72
2022/10/03 11:43:09;;;;;;;7.40;2.10;;;20.20;99.90;;;;;;5105250;28;20196;-73
2022/10/03 11:45:37;;;;;;;;;;;20.10;99.90;;;;;;5103171;28;20090;-73
2022/10/03 11:48:23;;;;;;;17.33;2.17;;;19.90;99.90;;;;;;5116524;28;19924;-74
2022/10/03 11:51:14;;;;;;;11.70;1.75;;;20.00;99.90;;;;;;5094763;28;20051;-72
2022/10/03 11:54:05;;;;;;;5.68;2.08;;;19.90;99.90;;;;;;5092424;28;20584;-71
2022/10/03 11:57:07;;;;;;;7.47;2.10;;;19.80;99.90;;;;;;5099990;28;20118;-72
2022/10/03 11:59:38;;;;;;;8.82;1.67;;;19.80;99.90;;;;;;5110300;28;20050;-72
2022/10/03 12:02:23;;;;;;;10.60;2.10;;;19.80;99.90;;;;;;5103242;28;20500;-71
2022/10/03 12:04:51;;;;;;;6.35;2.25;;;19.90;99.90;;;;;;5110549;28;20050;-71
2022/10/03 12:10:51;;;;;;;14.55;2.83;;;20.00;99.90;;;;;;5095015;28;21841;-71
2022/10/03 12:13:34;;;;;;;9.80;2.08;;;19.90;99.90;;;;;;5102486;27;20050;-71
2022/10/03 12:16:01;;;;;;;10.60;2.35;;;19.90;99.90;;;;;;5106564;27;20085;-71
2022/10/03 12:18:51;;;;;;;10.27;2.28;;;19.90;99.90;;;;;;5105936;28;20066;-71
2022/10/03 12:21:53;;;;;;;8.43;1.70;;;20.00;99.90;;;;;;5104468;28;20051;-71
2022/10/03 12:24:28;;;;;;;10.98;2.83;;;20.00;99.90;;;;;;5103682;28;20112;-71
2022/10/03 12:27:35;;;;;;;11.05;4.03;;;20.00;99.90;;;;;;5114610;27;20035;-72
2022/10/03 12:30:13;;;;;;;10.82;2.15;;;20.10;99.90;;;;;;5106515;28;20870;-72
2022/10/03 12:32:58;;;;;;;;;;;20.10;99.90;;;;;;5111262;28;20040;-71
2022/10/03 12:35:32;;;;;;;10.10;2.60;;;20.10;99.90;;;;;;5106743;28;19920;-72
2022/10/03 12:38:06;;;;;;;9.95;2.30;;;20.10;99.90;;;;;;5108578;27;20078;-71
2022/10/03 12:41:15;;;;;;;12.60;2.72;;;20.10;99.90;;;;;;5100499;28;20044;-71
2022/10/03 12:44:08;;;;;;;8.48;1.83;;;20.00;99.90;;;;;;5091065;28;20611;-72
2022/10/03 12:46:45;;;;;;;6.03;1.45;;;20.00;99.90;;;;;;5097895;28;20090;-71
2022/10/03 12:49:23;;;;;;;17.35;2.97;;;20.00;99.90;;;;;;5092814;28;20070;-72
2022/10/03 12:52:20;;;;;;;9.35;2.47;;;20.00;99.90;;;;;;5101588;28;20087;-71
2022/10/03 12:55:00;;;;;;;7.47;2.55;;;20.00;99.90;;;;;;5104002;28;20413;-71
2022/10/03 12:57:49;;;;;;;12.13;2.53;;;20.10;99.90;;;;;;5110122;28;20493;-72
2022/10/03 13:00:21;;;;;;;11.50;2.50;;;20.00;99.90;;;;;;5108477;28;20060;-72
2022/10/03 13:03:09;;;;;;;7.50;2.17;;;20.00;99.90;;;;;;5108851;28;20130;-72
2022/10/03 13:05:56;;;;;;;5.35;2.00;;;19.90;99.90;;;;;;5099237;28;20059;-71
2022/10/03 13:08:37;;;;;;;7.05;2.22;;;20.00;99.90;;;;;;5106682;28;20051;-71
2022/10/03 13:11:34;;;;;;;11.13;2.63;;;20.10;99.90;;;;;;5094501;28;20063;-72
2022/10/03 13:14:09;;;;;;;7.88;2.13;;;20.30;99.90;;;;;;5101680;28;20043;-71
2022/10/03 13:16:49;;;;;;;7.85;1.88;;;20.30;99.90;;;;;;5097089;28;20056;-72
2022/10/03 13:19:26;;;;;;;6.28;2.17;;;20.20;99.90;;;;;;5103877;28;20446;-71
2022/10/03 13:22:19;;;;;;;10.43;2.22;;;20.20;99.90;;;;;;5096033;28;20048;-71
2022/10/03 13:25:02;;;;;;;9.00;2.08;;;20.20;99.90;;;;;;5106311;28;20039;-71
2022/10/03 13:27:47;;;;;;;3.45;1.70;;;20.00;99.90;;;;;;5109044;28;20119;-71
2022/10/03 13:30:21;;;;;;;9.82;2.13;;;19.90;99.90;;;;;;5105346;28;20051;-71
2022/10/03 13:33:01;;;;;;;10.68;2.65;;;19.90;99.90;;;;;;5091088;28;20083;-72
2022/10/03 13:38:45;;;;;;;8.52;2.58;;;19.80;99.90;;;;;;5103707;28;20075;-71
2022/10/03 13:41:49;;;;;;;10.20;2.05;;;20.00;99.90;;;;;;5106557;28;20051;-71
2022/10/03 13:44:17;;;;;;;6.90;2.08;;;19.90;99.90;;;;;;5098510;28;20134;-71
2022/10/03 13:47:01;;;;;;;;;;;19.80;99.90;;;;;;5099290;28;20043;-72
2022/10/03 13:49:31;;;;;;;8.70;2.53;;;19.60;99.90;;;;;;5104100;28;19923;-72
2022/10/03 13:52:17;;;;;;;7.80;2.25;;;19.80;99.90;;;;;;5106714;28;20086;-72
2022/10/03 13:55:02;;;;;;;9.77;2.13;;;19.70;99.90;;;;;;5097771;28;20082;-72
2022/10/03 13:57:43;;;;;;;42.40;9.20;;;19.70;99.90;;;;;;5106317;28;20087;-72
2022/10/03 14:00:20;;;;;;;16.00;3.15;;;19.70;99.90;;;;;;5109213;28;20546;-72
2022/10/03 14:02:58;;;;;;;71.82;22.25;;;19.60;99.90;;;;;;5108116;28;20134;-71
2022/10/03 14:05:58;;;;;;;14.68;5.65;;;19.60;99.90;;;;;;5094252;28;20052;-71
2022/10/03 14:08:43;;;;;;;14.27;3.05;;;19.60;99.90;;;;;;5106407;28;20051;-71
2022/10/03 14:11:11;;;;;;;6.00;2.53;;;19.50;99.90;;;;;;5101444;28;20512;-71
2022/10/03 14:13:52;;;;;;;18.45;3.13;;;19.50;99.90;;;;;;5098872;28;20048;-71
2022/10/03 14:16:24;;;;;;;6.90;2.05;;;19.50;99.90;;;;;;5081728;28;20062;-71
2022/10/03 14:19:22;;;;;;;8.23;2.20;;;19.30;99.90;;;;;;5105173;28;20051;-71
2022/10/03 14:21:53;;;;;;;;;;;19.30;99.90;;;;;;5097478;28;20052;-71
2022/10/03 14:24:35;;;;;;;10.15;2.30;;;19.20;99.90;;;;;;5101208;28;20303;-71
2022/10/03 14:27:03;;;;;;;9.70;2.65;;;19.20;99.90;;;;;;5107265;28;20113;-71
2022/10/03 14:30:06;;;;;;;7.32;2.55;;;19.20;99.90;;;;;;5106189;28;20400;-70
2022/10/03 14:32:37;;;;;;;3.75;2.25;;;19.10;99.90;;;;;;5104297;28;20111;-70
2022/10/03 14:35:38;;;;;;;11.50;2.83;;;19.10;99.90;;;;;;5106685;28;20039;-70
2022/10/03 14:41:25;;;;;;;9.13;2.70;;;19.00;99.90;;;;;;5108248;28;20512;-71